sensor_id;sensor_type;location;lat;lon;timestamp;P1;durP1;ratioP1;P2;durP2;ratioP2
4214;SDS011;2121;48.062;7.850;2022-08-05T00:01:10;3.47;;;2.73;;
4214;SDS011;2121;48.062;7.850;2022-08-05T00:03:40;3.37;;;3.07;;
4214;SDS011;2121;48.062;7.850;2022-08-05T00:06:07;3.50;;;3.30;;
4214;SDS011;2121;48.062;7.850;2022-08-05T00:08:33;3.87;;;3.57;;
4214;SDS011;2121;48.062;7.850;2022-08-05T00:11:01;3.47;;;2.93;;
4214;SDS011;2121;48.062;7.850;2022-08-05T00:13:37;5.60;;;3.13;;
4214;SDS011;2121;48.062;7.850;2022-08-05T00:16:06;3.67;;;3.37;;
4214;SDS011;2121;48.062;7.850;2022-08-05T00:18:34;3.33;;;3.13;;
4214;SDS011;2121;48.062;7.850;2022-08-05T00:21:01;3.20;;;2.90;;
4214;SDS011;2121;48.062;7.850;2022-08-05T00:23:27;2.97;;;2.87;;
4214;SDS011;2121;48.062;7.850;2022-08-05T00:25:53;3.40;;;3.20;;
4214;SDS011;2121;48.062;7.850;2022-08-05T00:28:18;4.33;;;3.10;;
4214;SDS011;2121;48.062;7.850;2022-08-05T00:30:44;2.83;;;2.63;;
4214;SDS011;2121;48.062;7.850;2022-08-05T00:33:10;3.30;;;3.00;;
4214;SDS011;2121;48.062;7.850;2022-08-05T00:35:36;3.37;;;3.10;;
4214;SDS011;2121;48.062;7.850;2022-08-05T00:38:02;3.50;;;3.20;;
4214;SDS011;2121;48.062;7.850;2022-08-05T00:40:27;4.93;;;3.03;;
4214;SDS011;2121;48.062;7.850;2022-08-05T00:42:58;4.00;;;3.27;;
4214;SDS011;2121;48.062;7.850;2022-08-05T00:45:26;3.20;;;3.00;;
4214;SDS011;2121;48.062;7.850;2022-08-05T00:47:53;3.60;;;3.40;;
4214;SDS011;2121;48.062;7.850;2022-08-05T00:50:18;3.77;;;3.40;;
4214;SDS011;2121;48.062;7.850;2022-08-05T00:52:44;3.30;;;3.10;;
4214;SDS011;2121;48.062;7.850;2022-08-05T00:55:10;3.57;;;3.27;;
4214;SDS011;2121;48.062;7.850;2022-08-05T00:57:36;4.23;;;3.93;;
4214;SDS011;2121;48.062;7.850;2022-08-05T01:00:02;3.67;;;3.37;;
4214;SDS011;2121;48.062;7.850;2022-08-05T01:02:30;3.77;;;3.47;;
4214;SDS011;2121;48.062;7.850;2022-08-05T01:04:56;4.10;;;3.70;;
4214;SDS011;2121;48.062;7.850;2022-08-05T01:07:22;3.90;;;3.60;;
4214;SDS011;2121;48.062;7.850;2022-08-05T01:09:48;3.40;;;3.20;;
4214;SDS011;2121;48.062;7.850;2022-08-05T01:12:14;3.93;;;3.13;;
4214;SDS011;2121;48.062;7.850;2022-08-05T01:14:58;6.90;;;3.20;;
4214;SDS011;2121;48.062;7.850;2022-08-05T01:18:04;3.40;;;3.17;;
4214;SDS011;2121;48.062;7.850;2022-08-05T01:20:30;3.90;;;3.50;;
4214;SDS011;2121;48.062;7.850;2022-08-05T01:28:47;4.87;;;3.60;;
4214;SDS011;2121;48.062;7.850;2022-08-05T01:34:17;4.60;;;3.50;;
4214;SDS011;2121;48.062;7.850;2022-08-05T01:36:50;3.90;;;3.50;;
4214;SDS011;2121;48.062;7.850;2022-08-05T01:39:47;3.43;;;3.20;;
4214;SDS011;2121;48.062;7.850;2022-08-05T01:42:16;4.43;;;3.60;;
4214;SDS011;2121;48.062;7.850;2022-08-05T01:44:45;3.73;;;3.13;;
4214;SDS011;2121;48.062;7.850;2022-08-05T01:47:14;3.63;;;3.33;;
4214;SDS011;2121;48.062;7.850;2022-08-05T01:49:44;6.80;;;3.13;;
4214;SDS011;2121;48.062;7.850;2022-08-05T01:52:12;3.70;;;3.40;;
4214;SDS011;2121;48.062;7.850;2022-08-05T01:54:40;3.40;;;3.10;;
4214;SDS011;2121;48.062;7.850;2022-08-05T01:57:10;3.50;;;3.00;;
4214;SDS011;2121;48.062;7.850;2022-08-05T01:59:41;3.40;;;3.20;;
4214;SDS011;2121;48.062;7.850;2022-08-05T02:02:10;4.50;;;3.43;;
4214;SDS011;2121;48.062;7.850;2022-08-05T02:04:37;3.70;;;3.40;;
4214;SDS011;2121;48.062;7.850;2022-08-05T02:07:06;2.80;;;2.60;;
4214;SDS011;2121;48.062;7.850;2022-08-05T02:09:32;4.23;;;3.00;;
4214;SDS011;2121;48.062;7.850;2022-08-05T02:14:43;4.43;;;3.07;;
4214;SDS011;2121;48.062;7.850;2022-08-05T02:17:25;3.20;;;3.00;;
4214;SDS011;2121;48.062;7.850;2022-08-05T02:19:59;5.23;;;3.60;;
4214;SDS011;2121;48.062;7.850;2022-08-05T02:22:29;3.97;;;2.80;;
4214;SDS011;2121;48.062;7.850;2022-08-05T02:25:33;3.77;;;3.40;;
4214;SDS011;2121;48.062;7.850;2022-08-05T02:28:01;3.43;;;3.13;;
4214;SDS011;2121;48.062;7.850;2022-08-05T02:30:34;5.47;;;4.00;;
4214;SDS011;2121;48.062;7.850;2022-08-05T02:33:15;3.93;;;3.40;;
4214;SDS011;2121;48.062;7.850;2022-08-05T02:35:43;4.00;;;3.40;;
4214;SDS011;2121;48.062;7.850;2022-08-05T02:38:11;5.27;;;3.77;;
4214;SDS011;2121;48.062;7.850;2022-08-05T02:40:40;4.20;;;3.20;;
4214;SDS011;2121;48.062;7.850;2022-08-05T02:43:08;4.63;;;4.23;;
4214;SDS011;2121;48.062;7.850;2022-08-05T02:45:36;4.30;;;3.47;;
4214;SDS011;2121;48.062;7.850;2022-08-05T02:48:04;4.33;;;3.50;;
4214;SDS011;2121;48.062;7.850;2022-08-05T02:50:33;3.20;;;2.90;;
4214;SDS011;2121;48.062;7.850;2022-08-05T02:53:00;4.13;;;3.70;;
4214;SDS011;2121;48.062;7.850;2022-08-05T02:55:27;4.00;;;3.60;;
4214;SDS011;2121;48.062;7.850;2022-08-05T02:57:55;18.93;;;4.43;;
4214;SDS011;2121;48.062;7.850;2022-08-05T03:00:23;8.33;;;4.40;;
4214;SDS011;2121;48.062;7.850;2022-08-05T03:02:50;4.30;;;3.90;;
4214;SDS011;2121;48.062;7.850;2022-08-05T03:05:17;4.27;;;3.97;;
4214;SDS011;2121;48.062;7.850;2022-08-05T03:07:44;3.17;;;2.97;;
4214;SDS011;2121;48.062;7.850;2022-08-05T03:10:11;4.10;;;3.70;;
4214;SDS011;2121;48.062;7.850;2022-08-05T03:12:40;4.47;;;4.07;;
4214;SDS011;2121;48.062;7.850;2022-08-05T03:15:07;12.63;;;3.40;;
4214;SDS011;2121;48.062;7.850;2022-08-05T03:17:34;5.97;;;4.00;;
4214;SDS011;2121;48.062;7.850;2022-08-05T03:20:01;4.10;;;3.70;;
4214;SDS011;2121;48.062;7.850;2022-08-05T03:22:28;4.63;;;4.00;;
4214;SDS011;2121;48.062;7.850;2022-08-05T03:24:54;5.47;;;3.50;;
4214;SDS011;2121;48.062;7.850;2022-08-05T03:27:20;5.77;;;3.53;;
4214;SDS011;2121;48.062;7.850;2022-08-05T03:29:46;6.00;;;4.53;;
4214;SDS011;2121;48.062;7.850;2022-08-05T03:32:13;4.47;;;4.00;;
4214;SDS011;2121;48.062;7.850;2022-08-05T03:34:39;7.23;;;3.63;;
4214;SDS011;2121;48.062;7.850;2022-08-05T03:37:07;4.60;;;3.33;;
4214;SDS011;2121;48.062;7.850;2022-08-05T03:39:33;3.23;;;3.00;;
4214;SDS011;2121;48.062;7.850;2022-08-05T03:41:58;4.40;;;3.93;;
4214;SDS011;2121;48.062;7.850;2022-08-05T03:44:24;4.00;;;3.70;;
4214;SDS011;2121;48.062;7.850;2022-08-05T03:46:50;4.37;;;3.97;;
4214;SDS011;2121;48.062;7.850;2022-08-05T03:49:16;6.13;;;4.43;;
4214;SDS011;2121;48.062;7.850;2022-08-05T03:51:44;4.10;;;3.40;;
4214;SDS011;2121;48.062;7.850;2022-08-05T03:54:36;4.60;;;3.93;;
4214;SDS011;2121;48.062;7.850;2022-08-05T03:57:36;4.10;;;3.80;;
4214;SDS011;2121;48.062;7.850;2022-08-05T04:00:06;4.10;;;3.70;;
4214;SDS011;2121;48.062;7.850;2022-08-05T04:02:38;4.37;;;4.07;;
4214;SDS011;2121;48.062;7.850;2022-08-05T04:05:08;5.37;;;4.20;;
4214;SDS011;2121;48.062;7.850;2022-08-05T04:07:34;5.00;;;4.50;;
4214;SDS011;2121;48.062;7.850;2022-08-05T04:10:03;3.73;;;3.50;;
4214;SDS011;2121;48.062;7.850;2022-08-05T04:12:29;4.43;;;3.40;;
4214;SDS011;2121;48.062;7.850;2022-08-05T04:14:55;4.30;;;3.83;;
4214;SDS011;2121;48.062;7.850;2022-08-05T04:17:21;6.03;;;3.57;;
4214;SDS011;2121;48.062;7.850;2022-08-05T04:19:47;3.93;;;3.63;;
4214;SDS011;2121;48.062;7.850;2022-08-05T04:22:13;3.90;;;3.50;;
4214;SDS011;2121;48.062;7.850;2022-08-05T04:24:39;4.60;;;4.20;;
4214;SDS011;2121;48.062;7.850;2022-08-05T04:27:08;4.63;;;4.23;;
4214;SDS011;2121;48.062;7.850;2022-08-05T04:29:34;4.33;;;3.97;;
4214;SDS011;2121;48.062;7.850;2022-08-05T04:32:00;4.30;;;3.90;;
4214;SDS011;2121;48.062;7.850;2022-08-05T04:34:26;4.90;;;4.37;;
4214;SDS011;2121;48.062;7.850;2022-08-05T04:36:52;4.17;;;3.80;;
4214;SDS011;2121;48.062;7.850;2022-08-05T04:39:18;3.97;;;3.57;;
4214;SDS011;2121;48.062;7.850;2022-08-05T04:41:45;4.43;;;3.70;;
4214;SDS011;2121;48.062;7.850;2022-08-05T04:44:12;4.13;;;3.83;;
4214;SDS011;2121;48.062;7.850;2022-08-05T04:46:38;8.07;;;4.10;;
4214;SDS011;2121;48.062;7.850;2022-08-05T04:49:04;6.93;;;4.03;;
4214;SDS011;2121;48.062;7.850;2022-08-05T04:51:31;6.50;;;3.50;;
4214;SDS011;2121;48.062;7.850;2022-08-05T04:53:57;5.70;;;4.03;;
4214;SDS011;2121;48.062;7.850;2022-08-05T04:56:24;4.93;;;3.90;;
4214;SDS011;2121;48.062;7.850;2022-08-05T04:58:50;6.90;;;3.67;;
4214;SDS011;2121;48.062;7.850;2022-08-05T05:01:15;3.53;;;3.23;;
4214;SDS011;2121;48.062;7.850;2022-08-05T05:03:42;4.63;;;3.40;;
4214;SDS011;2121;48.062;7.850;2022-08-05T05:06:11;6.23;;;3.90;;
4214;SDS011;2121;48.062;7.850;2022-08-05T05:08:37;5.60;;;3.63;;
4214;SDS011;2121;48.062;7.850;2022-08-05T05:11:04;8.00;;;4.03;;
4214;SDS011;2121;48.062;7.850;2022-08-05T05:13:30;5.40;;;3.80;;
4214;SDS011;2121;48.062;7.850;2022-08-05T05:15:56;3.97;;;3.27;;
4214;SDS011;2121;48.062;7.850;2022-08-05T05:18:23;6.00;;;4.10;;
4214;SDS011;2121;48.062;7.850;2022-08-05T05:20:49;9.43;;;3.40;;
4214;SDS011;2121;48.062;7.850;2022-08-05T05:23:14;6.07;;;3.30;;
4214;SDS011;2121;48.062;7.850;2022-08-05T05:25:41;3.70;;;3.20;;
4214;SDS011;2121;48.062;7.850;2022-08-05T05:28:09;5.30;;;3.10;;
4214;SDS011;2121;48.062;7.850;2022-08-05T05:30:36;4.20;;;3.80;;
4214;SDS011;2121;48.062;7.850;2022-08-05T05:33:04;8.23;;;3.20;;
4214;SDS011;2121;48.062;7.850;2022-08-05T05:35:31;4.63;;;2.93;;
4214;SDS011;2121;48.062;7.850;2022-08-05T05:37:59;4.37;;;3.97;;
4214;SDS011;2121;48.062;7.850;2022-08-05T05:40:27;3.33;;;3.03;;
4214;SDS011;2121;48.062;7.850;2022-08-05T05:42:55;8.63;;;3.47;;
4214;SDS011;2121;48.062;7.850;2022-08-05T05:45:21;7.50;;;3.00;;
4214;SDS011;2121;48.062;7.850;2022-08-05T05:47:47;3.90;;;2.70;;
4214;SDS011;2121;48.062;7.850;2022-08-05T05:50:14;4.57;;;3.50;;
4214;SDS011;2121;48.062;7.850;2022-08-05T05:52:42;4.13;;;2.77;;
4214;SDS011;2121;48.062;7.850;2022-08-05T05:55:11;3.90;;;2.60;;
4214;SDS011;2121;48.062;7.850;2022-08-05T05:57:39;2.90;;;2.70;;
4214;SDS011;2121;48.062;7.850;2022-08-05T06:00:08;4.13;;;3.13;;
4214;SDS011;2121;48.062;7.850;2022-08-05T06:02:37;5.40;;;3.30;;
4214;SDS011;2121;48.062;7.850;2022-08-05T06:05:05;10.43;;;2.90;;
4214;SDS011;2121;48.062;7.850;2022-08-05T06:07:32;3.20;;;2.90;;
4214;SDS011;2121;48.062;7.850;2022-08-05T06:09:58;3.60;;;2.50;;
4214;SDS011;2121;48.062;7.850;2022-08-05T06:12:23;4.00;;;2.70;;
4214;SDS011;2121;48.062;7.850;2022-08-05T06:14:49;5.33;;;2.90;;
4214;SDS011;2121;48.062;7.850;2022-08-05T06:17:15;2.80;;;2.60;;
4214;SDS011;2121;48.062;7.850;2022-08-05T06:19:41;5.50;;;2.97;;
4214;SDS011;2121;48.062;7.850;2022-08-05T06:22:07;17.03;;;3.13;;
4214;SDS011;2121;48.062;7.850;2022-08-05T06:24:33;3.80;;;2.60;;
4214;SDS011;2121;48.062;7.850;2022-08-05T06:27:00;4.10;;;2.70;;
4214;SDS011;2121;48.062;7.850;2022-08-05T06:29:26;3.23;;;2.90;;
4214;SDS011;2121;48.062;7.850;2022-08-05T06:31:52;3.33;;;3.03;;
4214;SDS011;2121;48.062;7.850;2022-08-05T06:34:18;3.40;;;3.10;;
4214;SDS011;2121;48.062;7.850;2022-08-05T06:36:44;6.90;;;2.67;;
4214;SDS011;2121;48.062;7.850;2022-08-05T06:39:09;6.30;;;2.90;;
4214;SDS011;2121;48.062;7.850;2022-08-05T06:41:35;9.43;;;3.50;;
4214;SDS011;2121;48.062;7.850;2022-08-05T06:44:01;6.03;;;3.33;;
4214;SDS011;2121;48.062;7.850;2022-08-05T06:46:27;4.90;;;3.28;;
4214;SDS011;2121;48.062;7.850;2022-08-05T06:48:53;6.82;;;3.35;;
4214;SDS011;2121;48.062;7.850;2022-08-05T06:51:19;5.13;;;3.90;;
4214;SDS011;2121;48.062;7.850;2022-08-05T06:53:45;19.33;;;3.60;;
4214;SDS011;2121;48.062;7.850;2022-08-05T06:56:11;4.95;;;3.20;;
4214;SDS011;2121;48.062;7.850;2022-08-05T06:58:37;5.85;;;2.83;;
4214;SDS011;2121;48.062;7.850;2022-08-05T07:01:04;6.53;;;3.20;;
4214;SDS011;2121;48.062;7.850;2022-08-05T07:03:30;3.77;;;2.90;;
4214;SDS011;2121;48.062;7.850;2022-08-05T07:05:56;10.20;;;3.30;;
4214;SDS011;2121;48.062;7.850;2022-08-05T07:08:22;2.33;;;2.23;;
4214;SDS011;2121;48.062;7.850;2022-08-05T07:10:49;5.40;;;3.13;;
4214;SDS011;2121;48.062;7.850;2022-08-05T07:13:15;3.07;;;2.53;;
4214;SDS011;2121;48.062;7.850;2022-08-05T07:16:00;4.47;;;4.00;;
4214;SDS011;2121;48.062;7.850;2022-08-05T07:18:44;5.60;;;3.80;;
4214;SDS011;2121;48.062;7.850;2022-08-05T07:21:10;3.20;;;2.87;;
4214;SDS011;2121;48.062;7.850;2022-08-05T07:23:36;10.43;;;2.43;;
4214;SDS011;2121;48.062;7.850;2022-08-05T07:26:02;3.30;;;3.00;;
4214;SDS011;2121;48.062;7.850;2022-08-05T07:28:28;3.03;;;2.83;;
4214;SDS011;2121;48.062;7.850;2022-08-05T07:30:54;3.13;;;2.83;;
4214;SDS011;2121;48.062;7.850;2022-08-05T07:33:20;3.67;;;2.67;;
4214;SDS011;2121;48.062;7.850;2022-08-05T07:35:46;4.00;;;2.87;;
4214;SDS011;2121;48.062;7.850;2022-08-05T07:38:13;3.37;;;2.20;;
4214;SDS011;2121;48.062;7.850;2022-08-05T07:40:40;3.77;;;2.80;;
4214;SDS011;2121;48.062;7.850;2022-08-05T07:43:07;3.70;;;2.50;;
4214;SDS011;2121;48.062;7.850;2022-08-05T07:45:34;2.80;;;2.60;;
4214;SDS011;2121;48.062;7.850;2022-08-05T07:48:00;5.30;;;2.78;;
4214;SDS011;2121;48.062;7.850;2022-08-05T07:50:26;4.68;;;2.85;;
4214;SDS011;2121;48.062;7.850;2022-08-05T07:52:52;2.53;;;2.33;;
4214;SDS011;2121;48.062;7.850;2022-08-05T07:55:18;2.70;;;2.50;;
4214;SDS011;2121;48.062;7.850;2022-08-05T07:57:44;14.75;;;3.45;;
4214;SDS011;2121;48.062;7.850;2022-08-05T08:00:10;7.07;;;2.72;;
4214;SDS011;2121;48.062;7.850;2022-08-05T08:02:38;5.93;;;3.05;;
4214;SDS011;2121;48.062;7.850;2022-08-05T08:05:04;3.95;;;2.38;;
4214;SDS011;2121;48.062;7.850;2022-08-05T08:07:30;6.13;;;2.60;;
4214;SDS011;2121;48.062;7.850;2022-08-05T08:09:57;3.30;;;2.55;;
4214;SDS011;2121;48.062;7.850;2022-08-05T08:12:23;2.65;;;2.45;;
4214;SDS011;2121;48.062;7.850;2022-08-05T08:14:49;2.55;;;2.35;;
4214;SDS011;2121;48.062;7.850;2022-08-05T08:17:15;2.28;;;2.17;;
4214;SDS011;2121;48.062;7.850;2022-08-05T08:19:41;5.40;;;2.80;;
4214;SDS011;2121;48.062;7.850;2022-08-05T08:22:08;6.43;;;2.95;;
4214;SDS011;2121;48.062;7.850;2022-08-05T08:24:35;2.15;;;1.95;;
4214;SDS011;2121;48.062;7.850;2022-08-05T08:27:02;2.92;;;2.72;;
4214;SDS011;2121;48.062;7.850;2022-08-05T08:29:28;2.20;;;2.10;;
4214;SDS011;2121;48.062;7.850;2022-08-05T08:31:54;13.00;;;2.30;;
4214;SDS011;2121;48.062;7.850;2022-08-05T08:34:21;2.35;;;2.25;;
4214;SDS011;2121;48.062;7.850;2022-08-05T08:36:48;2.63;;;2.03;;
4214;SDS011;2121;48.062;7.850;2022-08-05T08:39:14;4.82;;;2.50;;
4214;SDS011;2121;48.062;7.850;2022-08-05T08:41:44;4.93;;;1.73;;
4214;SDS011;2121;48.062;7.850;2022-08-05T08:47:53;4.20;;;2.20;;
4214;SDS011;2121;48.062;7.850;2022-08-05T08:50:20;2.00;;;1.90;;
4214;SDS011;2121;48.062;7.850;2022-08-05T08:52:49;2.70;;;2.50;;
4214;SDS011;2121;48.062;7.850;2022-08-05T08:55:18;2.35;;;2.25;;
4214;SDS011;2121;48.062;7.850;2022-08-05T08:57:45;2.30;;;2.20;;
4214;SDS011;2121;48.062;7.850;2022-08-05T09:00:13;2.33;;;2.03;;
4214;SDS011;2121;48.062;7.850;2022-08-05T09:02:39;2.53;;;2.42;;
4214;SDS011;2121;48.062;7.850;2022-08-05T09:05:05;4.55;;;2.50;;
4214;SDS011;2121;48.062;7.850;2022-08-05T09:07:31;2.10;;;2.00;;
4214;SDS011;2121;48.062;7.850;2022-08-05T09:09:57;3.55;;;2.10;;
4214;SDS011;2121;48.062;7.850;2022-08-05T09:12:23;2.40;;;2.30;;
4214;SDS011;2121;48.062;7.850;2022-08-05T09:14:49;2.83;;;2.00;;
4214;SDS011;2121;48.062;7.850;2022-08-05T09:17:15;2.28;;;2.08;;
4214;SDS011;2121;48.062;7.850;2022-08-05T09:19:41;2.35;;;2.20;;
4214;SDS011;2121;48.062;7.850;2022-08-05T09:22:07;1.73;;;1.73;;
4214;SDS011;2121;48.062;7.850;2022-08-05T09:24:36;6.95;;;1.73;;
4214;SDS011;2121;48.062;7.850;2022-08-05T09:27:03;1.90;;;1.80;;
4214;SDS011;2121;48.062;7.850;2022-08-05T09:29:37;2.47;;;2.38;;
4214;SDS011;2121;48.062;7.850;2022-08-05T09:32:09;1.90;;;1.80;;
4214;SDS011;2121;48.062;7.850;2022-08-05T09:35:36;4.50;;;2.15;;
4214;SDS011;2121;48.062;7.850;2022-08-05T09:37:51;2.75;;;2.35;;
4214;SDS011;2121;48.062;7.850;2022-08-05T09:40:35;2.25;;;2.15;;
4214;SDS011;2121;48.062;7.850;2022-08-05T09:43:06;2.35;;;2.10;;
4214;SDS011;2121;48.062;7.850;2022-08-05T09:45:50;3.95;;;2.28;;
4214;SDS011;2121;48.062;7.850;2022-08-05T09:48:19;1.98;;;1.75;;
4214;SDS011;2121;48.062;7.850;2022-08-05T09:50:50;1.80;;;1.70;;
4214;SDS011;2121;48.062;7.850;2022-08-05T09:53:19;1.90;;;1.80;;
4214;SDS011;2121;48.062;7.850;2022-08-05T09:55:45;4.55;;;2.33;;
4214;SDS011;2121;48.062;7.850;2022-08-05T09:58:20;2.33;;;2.22;;
4214;SDS011;2121;48.062;7.850;2022-08-05T10:01:05;1.90;;;1.80;;
4214;SDS011;2121;48.062;7.850;2022-08-05T10:03:32;2.10;;;2.00;;
4214;SDS011;2121;48.062;7.850;2022-08-05T10:06:08;2.13;;;2.03;;
4214;SDS011;2121;48.062;7.850;2022-08-05T10:08:36;2.47;;;2.28;;
4214;SDS011;2121;48.062;7.850;2022-08-05T10:11:12;2.40;;;2.30;;
4214;SDS011;2121;48.062;7.850;2022-08-05T10:13:40;2.78;;;2.47;;
4214;SDS011;2121;48.062;7.850;2022-08-05T10:16:26;1.98;;;1.88;;
4214;SDS011;2121;48.062;7.850;2022-08-05T10:18:56;5.72;;;2.50;;
4214;SDS011;2121;48.062;7.850;2022-08-05T10:21:22;3.80;;;2.40;;
4214;SDS011;2121;48.062;7.850;2022-08-05T10:23:48;2.28;;;2.10;;
4214;SDS011;2121;48.062;7.850;2022-08-05T10:26:14;4.55;;;2.53;;
4214;SDS011;2121;48.062;7.850;2022-08-05T10:28:41;2.72;;;2.45;;
4214;SDS011;2121;48.062;7.850;2022-08-05T10:31:10;3.17;;;2.05;;
4214;SDS011;2121;48.062;7.850;2022-08-05T10:33:38;2.72;;;2.53;;
4214;SDS011;2121;48.062;7.850;2022-08-05T10:36:04;7.75;;;3.30;;
4214;SDS011;2121;48.062;7.850;2022-08-05T10:38:31;9.13;;;2.60;;
4214;SDS011;2121;48.062;7.850;2022-08-05T10:43:36;2.10;;;2.00;;
4214;SDS011;2121;48.062;7.850;2022-08-05T10:46:17;2.03;;;1.92;;
4214;SDS011;2121;48.062;7.850;2022-08-05T10:48:46;2.20;;;2.00;;
4214;SDS011;2121;48.062;7.850;2022-08-05T10:51:15;5.93;;;2.38;;
4214;SDS011;2121;48.062;7.850;2022-08-05T10:53:44;14.13;;;3.10;;
4214;SDS011;2121;48.062;7.850;2022-08-05T10:56:20;2.50;;;2.30;;
4214;SDS011;2121;48.062;7.850;2022-08-05T11:01:26;2.47;;;1.90;;
4214;SDS011;2121;48.062;7.850;2022-08-05T11:09:26;2.35;;;2.17;;
4214;SDS011;2121;48.062;7.850;2022-08-05T11:12:01;2.13;;;2.03;;
4214;SDS011;2121;48.062;7.850;2022-08-05T11:14:31;3.63;;;2.35;;
4214;SDS011;2121;48.062;7.850;2022-08-05T11:19:51;2.03;;;1.92;;
4214;SDS011;2121;48.062;7.850;2022-08-05T11:33:29;4.20;;;2.58;;
4214;SDS011;2121;48.062;7.850;2022-08-05T11:35:58;2.50;;;2.40;;
4214;SDS011;2121;48.062;7.850;2022-08-05T11:43:33;1.90;;;1.80;;
4214;SDS011;2121;48.062;7.850;2022-08-05T11:45:59;3.20;;;2.20;;
4214;SDS011;2121;48.062;7.850;2022-08-05T11:48:25;2.42;;;2.30;;
4214;SDS011;2121;48.062;7.850;2022-08-05T11:50:52;5.07;;;2.17;;
4214;SDS011;2121;48.062;7.850;2022-08-05T11:53:19;2.75;;;2.55;;
4214;SDS011;2121;48.062;7.850;2022-08-05T11:55:52;2.50;;;2.40;;
4214;SDS011;2121;48.062;7.850;2022-08-05T11:58:29;2.85;;;2.60;;
4214;SDS011;2121;48.062;7.850;2022-08-05T12:01:00;2.55;;;2.42;;
4214;SDS011;2121;48.062;7.850;2022-08-05T12:06:23;2.63;;;2.50;;
4214;SDS011;2121;48.062;7.850;2022-08-05T12:08:53;2.30;;;2.20;;
4214;SDS011;2121;48.062;7.850;2022-08-05T12:11:27;3.13;;;2.47;;
4214;SDS011;2121;48.062;7.850;2022-08-05T12:16:33;2.67;;;2.58;;
4214;SDS011;2121;48.062;7.850;2022-08-05T12:19:01;2.63;;;2.42;;
4214;SDS011;2121;48.062;7.850;2022-08-05T12:21:32;2.53;;;2.20;;
4214;SDS011;2121;48.062;7.850;2022-08-05T12:24:06;2.15;;;2.05;;
4214;SDS011;2121;48.062;7.850;2022-08-05T12:31:46;2.75;;;2.30;;
4214;SDS011;2121;48.062;7.850;2022-08-05T12:34:23;2.45;;;2.25;;
4214;SDS011;2121;48.062;7.850;2022-08-05T12:36:52;2.70;;;2.55;;
4214;SDS011;2121;48.062;7.850;2022-08-05T12:39:21;2.25;;;2.15;;
4214;SDS011;2121;48.062;7.850;2022-08-05T12:41:48;4.93;;;2.30;;
4214;SDS011;2121;48.062;7.850;2022-08-05T12:44:15;3.30;;;2.60;;
4214;SDS011;2121;48.062;7.850;2022-08-05T12:46:50;4.07;;;2.28;;
4214;SDS011;2121;48.062;7.850;2022-08-05T12:49:18;5.45;;;2.47;;
4214;SDS011;2121;48.062;7.850;2022-08-05T12:56:52;2.38;;;2.28;;
4214;SDS011;2121;48.062;7.850;2022-08-05T12:59:21;2.42;;;2.22;;
4214;SDS011;2121;48.062;7.850;2022-08-05T13:02:02;4.10;;;2.03;;
4214;SDS011;2121;48.062;7.850;2022-08-05T13:04:32;2.40;;;2.20;;
4214;SDS011;2121;48.062;7.850;2022-08-05T13:07:10;5.13;;;3.53;;
4214;SDS011;2121;48.062;7.850;2022-08-05T13:09:40;2.20;;;2.10;;
4214;SDS011;2121;48.062;7.850;2022-08-05T13:14:39;2.13;;;2.08;;
4214;SDS011;2121;48.062;7.850;2022-08-05T13:20:00;2.13;;;2.03;;
4214;SDS011;2121;48.062;7.850;2022-08-05T13:22:50;3.95;;;1.90;;
4214;SDS011;2121;48.062;7.850;2022-08-05T13:25:17;3.40;;;2.70;;
4214;SDS011;2121;48.062;7.850;2022-08-05T13:27:48;2.45;;;2.10;;
4214;SDS011;2121;48.062;7.850;2022-08-05T13:30:20;3.40;;;2.20;;
4214;SDS011;2121;48.062;7.850;2022-08-05T13:32:48;4.28;;;2.53;;
4214;SDS011;2121;48.062;7.850;2022-08-05T13:35:15;2.75;;;2.55;;
4214;SDS011;2121;48.062;7.850;2022-08-05T13:37:44;3.00;;;2.72;;
4214;SDS011;2121;48.062;7.850;2022-08-05T13:40:11;3.58;;;2.70;;
4214;SDS011;2121;48.062;7.850;2022-08-05T13:42:37;3.88;;;2.55;;
4214;SDS011;2121;48.062;7.850;2022-08-05T13:45:04;7.22;;;2.78;;
4214;SDS011;2121;48.062;7.850;2022-08-05T13:47:32;2.15;;;2.03;;
4214;SDS011;2121;48.062;7.850;2022-08-05T13:49:58;2.67;;;2.58;;
4214;SDS011;2121;48.062;7.850;2022-08-05T13:52:25;2.60;;;2.40;;
4214;SDS011;2121;48.062;7.850;2022-08-05T13:54:54;2.72;;;2.35;;
4214;SDS011;2121;48.062;7.850;2022-08-05T13:57:21;2.25;;;2.03;;
4214;SDS011;2121;48.062;7.850;2022-08-05T13:59:47;2.40;;;2.30;;
4214;SDS011;2121;48.062;7.850;2022-08-05T14:02:14;1.88;;;1.77;;
4214;SDS011;2121;48.062;7.850;2022-08-05T14:04:42;2.10;;;2.00;;
4214;SDS011;2121;48.062;7.850;2022-08-05T14:07:29;2.47;;;2.38;;
4214;SDS011;2121;48.062;7.850;2022-08-05T14:09:58;3.47;;;2.70;;
4214;SDS011;2121;48.062;7.850;2022-08-05T14:12:24;3.22;;;2.25;;
4214;SDS011;2121;48.062;7.850;2022-08-05T14:14:51;2.45;;;2.35;;
4214;SDS011;2121;48.062;7.850;2022-08-05T14:17:17;9.68;;;3.42;;
4214;SDS011;2121;48.062;7.850;2022-08-05T14:19:43;5.55;;;2.25;;
4214;SDS011;2121;48.062;7.850;2022-08-05T14:22:09;2.55;;;2.00;;
4214;SDS011;2121;48.062;7.850;2022-08-05T14:24:35;2.88;;;2.50;;
4214;SDS011;2121;48.062;7.850;2022-08-05T14:27:03;4.07;;;2.30;;
4214;SDS011;2121;48.062;7.850;2022-08-05T14:29:30;2.88;;;2.17;;
4214;SDS011;2121;48.062;7.850;2022-08-05T14:31:56;2.60;;;2.42;;
4214;SDS011;2121;48.062;7.850;2022-08-05T14:34:22;2.53;;;2.33;;
4214;SDS011;2121;48.062;7.850;2022-08-05T14:36:48;5.68;;;2.75;;
4214;SDS011;2121;48.062;7.850;2022-08-05T14:39:14;3.92;;;2.65;;
4214;SDS011;2121;48.062;7.850;2022-08-05T14:41:40;3.20;;;2.75;;
4214;SDS011;2121;48.062;7.850;2022-08-05T14:44:06;3.63;;;2.85;;
4214;SDS011;2121;48.062;7.850;2022-08-05T14:46:32;4.75;;;3.03;;
4214;SDS011;2121;48.062;7.850;2022-08-05T14:48:59;5.03;;;2.63;;
4214;SDS011;2121;48.062;7.850;2022-08-05T14:51:27;2.50;;;2.40;;
4214;SDS011;2121;48.062;7.850;2022-08-05T14:53:53;5.50;;;2.85;;
4214;SDS011;2121;48.062;7.850;2022-08-05T14:56:20;4.28;;;3.25;;
4214;SDS011;2121;48.062;7.850;2022-08-05T14:58:46;2.50;;;2.30;;
4214;SDS011;2121;48.062;7.850;2022-08-05T15:01:12;3.03;;;2.70;;
4214;SDS011;2121;48.062;7.850;2022-08-05T15:03:38;4.40;;;2.90;;
4214;SDS011;2121;48.062;7.850;2022-08-05T15:06:03;8.23;;;3.50;;
4214;SDS011;2121;48.062;7.850;2022-08-05T15:08:30;9.32;;;3.30;;
4214;SDS011;2121;48.062;7.850;2022-08-05T15:10:56;2.97;;;2.78;;
4214;SDS011;2121;48.062;7.850;2022-08-05T15:13:21;3.95;;;3.63;;
4214;SDS011;2121;48.062;7.850;2022-08-05T15:15:47;5.82;;;2.95;;
4214;SDS011;2121;48.062;7.850;2022-08-05T15:18:13;4.53;;;3.60;;
4214;SDS011;2121;48.062;7.850;2022-08-05T15:20:39;3.58;;;3.22;;
4214;SDS011;2121;48.062;7.850;2022-08-05T15:23:06;3.78;;;3.25;;
4214;SDS011;2121;48.062;7.850;2022-08-05T15:25:35;3.67;;;3.10;;
4214;SDS011;2121;48.062;7.850;2022-08-05T15:28:02;5.05;;;3.45;;
4214;SDS011;2121;48.062;7.850;2022-08-05T15:30:28;5.18;;;4.05;;
4214;SDS011;2121;48.062;7.850;2022-08-05T15:32:58;3.88;;;3.35;;
4214;SDS011;2121;48.062;7.850;2022-08-05T15:35:25;3.28;;;2.75;;
4214;SDS011;2121;48.062;7.850;2022-08-05T15:37:51;8.30;;;3.60;;
4214;SDS011;2121;48.062;7.850;2022-08-05T15:40:18;3.78;;;3.47;;
4214;SDS011;2121;48.062;7.850;2022-08-05T15:42:45;4.53;;;3.60;;
4214;SDS011;2121;48.062;7.850;2022-08-05T15:45:11;5.95;;;3.08;;
4214;SDS011;2121;48.062;7.850;2022-08-05T15:47:38;3.70;;;3.15;;
4214;SDS011;2121;48.062;7.850;2022-08-05T15:50:06;3.08;;;2.88;;
4214;SDS011;2121;48.062;7.850;2022-08-05T15:52:34;3.80;;;3.50;;
4214;SDS011;2121;48.062;7.850;2022-08-05T15:55:01;4.78;;;3.42;;
4214;SDS011;2121;48.062;7.850;2022-08-05T15:57:28;3.70;;;3.40;;
4214;SDS011;2121;48.062;7.850;2022-08-05T15:59:54;3.63;;;3.17;;
4214;SDS011;2121;48.062;7.850;2022-08-05T16:02:20;5.38;;;3.22;;
4214;SDS011;2121;48.062;7.850;2022-08-05T16:04:46;3.58;;;3.05;;
4214;SDS011;2121;48.062;7.850;2022-08-05T16:07:12;3.35;;;3.15;;
4214;SDS011;2121;48.062;7.850;2022-08-05T16:09:39;7.25;;;3.67;;
4214;SDS011;2121;48.062;7.850;2022-08-05T16:12:06;7.40;;;4.17;;
4214;SDS011;2121;48.062;7.850;2022-08-05T16:14:33;5.70;;;4.30;;
4214;SDS011;2121;48.062;7.850;2022-08-05T16:16:59;4.23;;;3.33;;
4214;SDS011;2121;48.062;7.850;2022-08-05T16:19:25;5.57;;;3.90;;
4214;SDS011;2121;48.062;7.850;2022-08-05T16:21:51;4.63;;;4.00;;
4214;SDS011;2121;48.062;7.850;2022-08-05T16:24:17;4.17;;;3.70;;
4214;SDS011;2121;48.062;7.850;2022-08-05T16:26:53;3.77;;;3.40;;
4214;SDS011;2121;48.062;7.850;2022-08-05T16:29:22;3.90;;;3.60;;